createdAt,value
2022-09-07T00:00:41.863Z,31.75
2022-09-07T00:03:08.444Z,37.28
2022-09-07T00:05:41.015Z,37.35
2022-09-07T00:08:07.579Z,37.72
2022-09-07T00:10:34.072Z,30.00
2022-09-07T00:13:00.626Z,36.30
2022-09-07T00:15:27.120Z,31.38
2022-09-07T00:17:53.634Z,37.25
2022-09-07T00:20:20.118Z,58.10
2022-09-07T00:22:46.870Z,30.88
2022-09-07T00:25:13.565Z,34.20
2022-09-07T00:27:40.429Z,28.27
2022-09-07T00:30:07.110Z,30.55
2022-09-07T00:32:33.993Z,30.38
2022-09-07T00:35:00.490Z,29.50
2022-09-07T00:37:27.064Z,28.23
2022-09-07T00:39:53.712Z,33.63
2022-09-07T00:42:21.372Z,31.30
2022-09-07T00:45:05.541Z,28.17
2022-09-07T00:47:32.053Z,28.65
2022-09-07T00:50:00.018Z,27.55
2022-09-07T00:52:27.588Z,25.40
2022-09-07T00:54:59.689Z,33.00
2022-09-07T00:57:28.286Z,28.00
2022-09-07T00:59:55.749Z,30.45
2022-09-07T01:02:23.263Z,33.40
2022-09-07T01:04:51.998Z,28.67
2022-09-07T01:07:18.639Z,33.65
2022-09-07T01:09:47.354Z,29.92
2022-09-07T01:12:14.298Z,27.92
2022-09-07T01:14:42.797Z,28.58
2022-09-07T01:17:09.249Z,25.08
2022-09-07T01:19:35.925Z,38.45
2022-09-07T01:22:14.874Z,27.00
2022-09-07T01:25:00.572Z,36.42
2022-09-07T01:27:30.073Z,33.60
2022-09-07T01:30:10.241Z,32.08
2022-09-07T01:32:56.971Z,25.25
2022-09-07T01:35:31.120Z,22.48
2022-09-07T01:38:09.556Z,33.70
2022-09-07T01:40:41.698Z,33.90
2022-09-07T01:43:12.186Z,35.33
2022-09-07T01:45:40.459Z,30.50
2022-09-07T01:48:09.294Z,37.83
2022-09-07T01:50:51.373Z,27.23
2022-09-07T01:53:24.602Z,36.30
2022-09-07T01:55:58.394Z,36.15
2022-09-07T01:58:27.691Z,34.35
2022-09-07T02:00:56.742Z,32.75
2022-09-07T02:03:38.410Z,42.45
2022-09-07T02:06:08.937Z,36.10
2022-09-07T02:08:45.030Z,31.38
2022-09-07T02:11:14.914Z,35.45
2022-09-07T02:13:45.639Z,49.83
2022-09-07T02:16:18.467Z,25.05
2022-09-07T02:18:47.069Z,40.20
2022-09-07T02:21:15.646Z,35.38
2022-09-07T02:23:49.439Z,32.45
2022-09-07T02:26:18.179Z,48.30
2022-09-07T02:28:44.764Z,42.00
2022-09-07T02:31:11.467Z,34.60
2022-09-07T02:33:38.128Z,49.72
2022-09-07T02:36:05.224Z,106.78
2022-09-07T02:38:32.353Z,49.10
2022-09-07T02:41:00.194Z,81.68
2022-09-07T02:43:27.982Z,58.55
2022-09-07T02:46:03.459Z,57.28
2022-09-07T02:48:37.828Z,59.33
2022-09-07T02:51:04.281Z,60.20
2022-09-07T02:53:31.104Z,55.65
2022-09-07T02:56:00.785Z,30.50
2022-09-07T02:58:39.252Z,65.68
2022-09-07T03:01:10.409Z,54.42
2022-09-07T03:03:46.248Z,81.47
2022-09-07T03:06:31.735Z,78.63
2022-09-07T03:08:59.241Z,64.63
2022-09-07T03:11:25.983Z,24.85
2022-09-07T03:13:52.499Z,85.60
2022-09-07T03:16:19.108Z,52.45
2022-09-07T03:18:45.643Z,25.20
2022-09-07T03:21:12.235Z,46.08
2022-09-07T03:23:38.950Z,64.82
2022-09-07T03:26:05.632Z,50.13
2022-09-07T03:28:32.303Z,42.95
2022-09-07T03:30:59.341Z,47.58
2022-09-07T03:33:25.886Z,61.50
2022-09-07T03:36:00.033Z,21.17
2022-09-07T03:38:26.692Z,28.48
2022-09-07T03:41:00.291Z,53.40
2022-09-07T03:43:27.016Z,33.35
2022-09-07T03:46:00.627Z,49.65
2022-09-07T03:48:27.895Z,38.35
2022-09-07T03:51:13.378Z,43.53
2022-09-07T03:53:41.105Z,20.90
2022-09-07T03:56:08.888Z,54.65
2022-09-07T03:58:35.880Z,71.65
2022-09-07T04:01:06.787Z,60.28
2022-09-07T04:03:33.547Z,94.00
2022-09-07T04:06:00.739Z,82.30
2022-09-07T04:08:31.283Z,29.10
2022-09-07T04:11:01.707Z,12.00
2022-09-07T04:13:29.263Z,12.55
2022-09-07T04:15:56.198Z,6.65
2022-09-07T04:18:23.212Z,7.68
2022-09-07T04:20:52.611Z,5.97
2022-09-07T04:23:20.023Z,9.88
2022-09-07T04:25:50.334Z,9.48
2022-09-07T04:28:17.717Z,8.50
2022-09-07T04:30:44.303Z,12.02
2022-09-07T04:33:10.932Z,10.45
2022-09-07T04:35:38.295Z,5.18
2022-09-07T04:38:05.202Z,5.55
2022-09-07T04:40:31.720Z,4.35
2022-09-07T04:42:58.405Z,3.55
2022-09-07T04:45:24.999Z,5.05
2022-09-07T04:47:51.811Z,7.82
2022-09-07T04:50:18.418Z,4.93
2022-09-07T04:52:45.393Z,8.07
2022-09-07T04:55:12.343Z,5.80
2022-09-07T04:57:39.200Z,6.55
2022-09-07T05:00:08.714Z,9.07
2022-09-07T05:02:35.411Z,12.57
2022-09-07T05:05:02.847Z,9.73
2022-09-07T05:07:29.649Z,11.32
2022-09-07T05:09:57.431Z,8.63
2022-09-07T05:12:23.934Z,10.23
2022-09-07T05:14:50.453Z,9.43
2022-09-07T05:17:17.050Z,6.90
2022-09-07T05:19:43.595Z,5.90
2022-09-07T05:22:10.172Z,6.05
2022-09-07T05:24:37.124Z,6.47
2022-09-07T05:27:04.540Z,5.45
2022-09-07T05:32:17.551Z,5.95
2022-09-07T05:34:44.071Z,6.88
2022-09-07T05:37:10.748Z,8.93
2022-09-07T05:39:37.845Z,7.05
2022-09-07T05:42:05.228Z,9.32
2022-09-07T05:44:47.434Z,6.25
2022-09-07T05:47:14.097Z,5.07
2022-09-07T05:49:40.689Z,7.82
2022-09-07T05:52:07.421Z,8.23
2022-09-07T05:54:33.984Z,6.32
2022-09-07T05:57:00.523Z,7.85
2022-09-07T05:59:27.093Z,7.32
2022-09-07T06:01:53.883Z,8.07
2022-09-07T06:04:20.451Z,5.40
2022-09-07T06:07:04.674Z,5.93
2022-09-07T06:09:33.727Z,6.80
2022-09-07T06:12:00.313Z,4.95
2022-09-07T06:14:26.831Z,4.40
2022-09-07T06:16:53.855Z,4.45
2022-09-07T06:19:20.407Z,4.22
2022-09-07T06:21:46.906Z,5.10
2022-09-07T06:24:13.455Z,4.68
2022-09-07T06:26:40.036Z,5.57
2022-09-07T06:29:06.707Z,3.70
2022-09-07T06:31:33.411Z,6.50
2022-09-07T06:34:00.567Z,6.43
2022-09-07T06:36:27.928Z,5.07
2022-09-07T06:38:58.974Z,4.85
2022-09-07T06:44:13.246Z,6.07
2022-09-07T06:49:26.281Z,4.72
2022-09-07T06:51:52.801Z,6.53
2022-09-07T06:57:09.395Z,6.93
2022-09-07T06:59:36.809Z,6.28
2022-09-07T07:02:04.078Z,6.20
2022-09-07T07:04:30.684Z,8.40
2022-09-07T07:06:57.232Z,7.35
2022-09-07T07:09:23.767Z,8.73
2022-09-07T07:11:50.360Z,8.20
2022-09-07T07:14:18.030Z,4.90
2022-09-07T07:16:44.822Z,4.93
2022-09-07T07:19:11.437Z,6.55
2022-09-07T07:22:03.138Z,7.45
2022-09-07T07:24:24.543Z,4.60
2022-09-07T07:26:51.126Z,5.80
2022-09-07T07:29:18.908Z,3.78
2022-09-07T07:31:47.060Z,4.35
2022-09-07T07:34:13.747Z,3.95
2022-09-07T07:36:40.294Z,7.00
2022-09-07T07:39:06.993Z,2.58
2022-09-07T07:44:20.820Z,3.42
2022-09-07T07:46:50.499Z,3.95
2022-09-07T07:49:17.230Z,2.80
2022-09-07T07:54:30.179Z,2.92
2022-09-07T07:56:56.627Z,3.40
2022-09-07T07:59:36.250Z,3.58
2022-09-07T08:02:05.273Z,3.40
2022-09-07T08:04:32.499Z,3.50
2022-09-07T08:06:59.091Z,3.28
2022-09-07T08:09:26.134Z,3.80
2022-09-07T08:11:52.642Z,3.97
2022-09-07T08:14:19.134Z,5.18
2022-09-07T08:16:45.915Z,4.45
2022-09-07T08:19:12.495Z,4.97
2022-09-07T08:21:38.917Z,5.53
2022-09-07T08:24:05.812Z,3.17
2022-09-07T08:26:32.718Z,4.70
2022-09-07T08:28:59.301Z,4.50
2022-09-07T08:31:25.862Z,3.10
2022-09-07T08:33:52.338Z,2.70
2022-09-07T08:36:19.890Z,4.00
2022-09-07T08:38:46.901Z,3.53
2022-09-07T08:41:31.717Z,2.42
2022-09-07T08:44:10.531Z,2.67
2022-09-07T08:46:52.607Z,3.50
2022-09-07T08:49:37.887Z,3.83
2022-09-07T08:52:08.902Z,1.67
2022-09-07T08:54:36.043Z,1.92
2022-09-07T08:59:54.026Z,2.63
2022-09-07T09:02:31.875Z,4.43
2022-09-07T09:05:17.418Z,5.85
2022-09-07T09:10:34.387Z,4.05
2022-09-07T09:13:05.141Z,3.45
2022-09-07T09:15:58.202Z,6.45
2022-09-07T09:18:35.630Z,2.63
2022-09-07T09:21:02.539Z,7.88
2022-09-07T09:23:34.872Z,4.63
2022-09-07T09:26:12.853Z,9.18
2022-09-07T09:28:39.803Z,7.18
2022-09-07T09:31:06.908Z,7.18
2022-09-07T09:33:33.383Z,10.52
2022-09-07T09:36:00.831Z,11.73
2022-09-07T09:38:30.476Z,10.50
2022-09-07T09:40:58.277Z,10.18
2022-09-07T09:43:26.073Z,9.00
2022-09-07T09:46:12.710Z,15.52
2022-09-07T09:48:40.587Z,10.18
2022-09-07T09:54:13.265Z,9.65
2022-09-07T09:56:44.359Z,11.50
2022-09-07T10:04:46.167Z,11.30
2022-09-07T10:07:24.751Z,14.95
2022-09-07T10:09:52.243Z,12.13
2022-09-07T10:12:27.735Z,14.13
2022-09-07T10:14:56.570Z,15.82
2022-09-07T10:17:34.082Z,13.48
2022-09-07T10:20:20.778Z,14.73
2022-09-07T10:22:51.616Z,17.05
2022-09-07T10:25:27.877Z,13.38
2022-09-07T10:28:15.649Z,18.98
2022-09-07T10:30:50.693Z,12.73
2022-09-07T10:33:25.059Z,17.63
2022-09-07T10:35:59.024Z,17.52
2022-09-07T10:41:01.827Z,18.33
2022-09-07T10:43:34.407Z,11.82
2022-09-07T10:46:13.911Z,15.15
2022-09-07T10:48:59.717Z,12.95
2022-09-07T10:51:32.261Z,17.63
2022-09-07T10:57:11.759Z,12.10
2022-09-07T11:02:41.175Z,17.60
2022-09-07T11:05:33.620Z,12.95
2022-09-07T11:08:12.955Z,13.45
2022-09-07T11:10:58.423Z,18.67
2022-09-07T11:13:28.290Z,17.52
2022-09-07T11:18:38.475Z,18.13
2022-09-07T11:21:07.223Z,21.30
2022-09-07T11:23:46.034Z,21.65
2022-09-07T11:26:24.776Z,24.80
2022-09-07T11:31:56.208Z,22.42
2022-09-07T11:34:35.074Z,24.25
2022-09-07T11:37:06.407Z,17.83
2022-09-07T11:39:39.606Z,18.52
2022-09-07T11:45:02.390Z,20.38
2022-09-07T11:47:47.609Z,17.70
2022-09-07T11:50:19.072Z,14.25
2022-09-07T11:52:57.555Z,15.60
2022-09-07T11:55:29.624Z,13.88
2022-09-07T11:58:08.738Z,16.00
2022-09-07T12:00:44.759Z,14.85
2022-09-07T12:03:22.621Z,17.23
2022-09-07T12:06:08.361Z,18.52
2022-09-07T12:08:34.823Z,14.20
2022-09-07T12:11:14.687Z,20.63
2022-09-07T12:13:53.405Z,12.25
2022-09-07T12:16:29.706Z,15.90
2022-09-07T12:19:01.992Z,15.18
2022-09-07T12:21:42.011Z,17.45
2022-09-07T12:24:27.275Z,19.08
2022-09-07T12:26:54.477Z,14.88
2022-09-07T12:29:22.885Z,14.20
2022-09-07T12:31:58.598Z,21.20
2022-09-07T12:34:29.597Z,17.42
2022-09-07T12:36:56.135Z,13.10
2022-09-07T12:39:28.418Z,17.83
2022-09-07T12:45:13.026Z,15.93
2022-09-07T12:47:40.474Z,12.82
2022-09-07T12:50:15.137Z,14.00
2022-09-07T12:52:46.269Z,15.43
2022-09-07T12:55:28.382Z,20.20
2022-09-07T12:58:06.175Z,11.77
2022-09-07T13:00:51.571Z,13.75
2022-09-07T13:07:01.733Z,14.00
2022-09-07T13:09:16.903Z,13.20
2022-09-07T13:11:43.428Z,15.32
2022-09-07T13:14:16.472Z,11.13
2022-09-07T13:19:46.245Z,18.70
2022-09-07T13:22:31.021Z,16.10
2022-09-07T13:24:59.785Z,8.02
2022-09-07T13:27:43.482Z,11.18
2022-09-07T13:30:16.672Z,13.88
2022-09-07T13:35:31.970Z,13.27
2022-09-07T13:38:00.040Z,13.10
2022-09-07T13:40:38.539Z,14.50
2022-09-07T13:43:05.579Z,16.67
2022-09-07T13:45:45.651Z,9.90
2022-09-07T13:48:26.691Z,11.75
2022-09-07T13:51:03.642Z,11.82
2022-09-07T13:53:39.336Z,8.32
2022-09-07T13:56:08.759Z,12.65
2022-09-07T13:58:36.708Z,13.90
2022-09-07T14:01:06.187Z,7.32
2022-09-07T14:03:51.590Z,11.48
2022-09-07T14:06:21.143Z,10.60
2022-09-07T14:08:49.397Z,9.02
2022-09-07T14:11:30.073Z,11.98
2022-09-07T14:14:06.423Z,10.57
2022-09-07T14:16:33.739Z,9.95
2022-09-07T14:19:00.363Z,13.57
2022-09-07T14:21:26.918Z,17.30
2022-09-07T14:23:53.382Z,11.32
2022-09-07T14:26:19.917Z,10.80
2022-09-07T14:28:47.816Z,11.90
2022-09-07T14:31:16.258Z,11.10
2022-09-07T14:33:49.329Z,12.10
2022-09-07T14:36:39.580Z,7.83
2022-09-07T14:39:05.745Z,12.20
2022-09-07T14:41:38.452Z,12.65
2022-09-07T14:44:05.035Z,12.15
2022-09-07T14:46:34.226Z,18.83
2022-09-07T14:49:02.677Z,12.50
2022-09-07T14:51:36.148Z,10.57
2022-09-07T14:54:07.922Z,13.85
2022-09-07T14:56:35.751Z,11.18
2022-09-07T14:59:02.190Z,11.00
2022-09-07T15:01:44.119Z,13.55
2022-09-07T15:04:18.450Z,12.15
2022-09-07T15:07:02.296Z,6.60
2022-09-07T15:09:30.915Z,14.43
2022-09-07T15:12:06.423Z,13.82
2022-09-07T15:14:32.923Z,19.00
2022-09-07T15:19:47.175Z,11.20
2022-09-07T15:22:18.610Z,14.55
2022-09-07T15:24:48.658Z,16.55
2022-09-07T15:27:24.700Z,11.38
2022-09-07T15:29:51.176Z,10.73
2022-09-07T15:32:18.468Z,17.50
2022-09-07T15:34:45.039Z,12.45
2022-09-07T15:39:58.286Z,13.73
2022-09-07T15:45:12.702Z,13.13
2022-09-07T15:47:43.548Z,16.95
2022-09-07T15:50:13.818Z,12.07
2022-09-07T15:52:40.344Z,17.52
2022-09-07T15:55:08.798Z,9.60
2022-09-07T15:57:59.531Z,13.75
2022-09-07T16:00:21.807Z,11.60
2022-09-07T16:03:05.765Z,13.07
2022-09-07T16:05:33.457Z,15.82
2022-09-07T16:10:53.522Z,16.58
2022-09-07T16:13:20.681Z,13.93
2022-09-07T16:15:47.943Z,10.35
2022-09-07T16:18:18.237Z,11.65
2022-09-07T16:20:45.207Z,11.18
2022-09-07T16:23:14.330Z,17.35
2022-09-07T16:25:43.362Z,16.60
2022-09-07T16:28:10.602Z,17.38
2022-09-07T16:30:40.567Z,13.15
2022-09-07T16:33:07.523Z,12.43
2022-09-07T16:35:34.056Z,15.57
2022-09-07T16:40:47.030Z,14.27
2022-09-07T16:43:13.615Z,15.93
2022-09-07T16:48:26.734Z,14.35
2022-09-07T16:51:00.372Z,13.55
2022-09-07T16:53:28.937Z,17.83
2022-09-07T16:56:05.907Z,15.00
2022-09-07T16:58:36.683Z,12.13
2022-09-07T17:01:18.130Z,15.00
2022-09-07T17:03:44.897Z,11.02
2022-09-07T17:06:12.230Z,12.80
2022-09-07T17:08:39.227Z,14.48
2022-09-07T17:11:10.135Z,11.48
2022-09-07T17:13:37.436Z,17.55
2022-09-07T17:16:33.398Z,13.73
2022-09-07T17:21:51.859Z,9.32
2022-09-07T17:24:19.722Z,19.08
2022-09-07T17:26:46.559Z,10.48
2022-09-07T17:29:13.501Z,13.25
2022-09-07T17:34:26.517Z,15.05
2022-09-07T17:36:53.011Z,14.15
2022-09-07T17:39:19.926Z,11.13
2022-09-07T17:41:47.840Z,15.27
2022-09-07T17:44:14.427Z,19.23
2022-09-07T17:46:41.035Z,17.95
2022-09-07T17:49:10.332Z,18.35
2022-09-07T17:51:37.028Z,16.85
2022-09-07T17:54:09.607Z,14.65
2022-09-07T18:02:04.717Z,11.43
2022-09-07T18:04:31.320Z,13.02
2022-09-07T18:06:57.857Z,14.35
2022-09-07T18:09:24.435Z,13.48
2022-09-07T18:11:51.250Z,12.73
2022-09-07T18:14:18.715Z,19.13
2022-09-07T18:16:46.164Z,14.63
2022-09-07T18:19:12.788Z,16.40
2022-09-07T18:21:41.193Z,18.55
2022-09-07T18:24:18.485Z,14.90
2022-09-07T18:26:51.760Z,12.20
2022-09-07T18:29:36.906Z,14.68
2022-09-07T18:32:08.187Z,14.32
2022-09-07T18:34:34.914Z,12.50
2022-09-07T18:37:01.741Z,11.65
2022-09-07T18:39:28.836Z,13.20
2022-09-07T18:41:55.721Z,13.07
2022-09-07T18:47:17.558Z,15.48
2022-09-07T18:49:48.287Z,11.80
2022-09-07T18:55:08.732Z,56.08
2022-09-07T18:57:36.545Z,73.88
2022-09-07T19:00:04.876Z,103.50
2022-09-07T19:02:32.008Z,116.95
2022-09-07T19:07:45.080Z,59.95
2022-09-07T19:10:12.463Z,188.00
2022-09-07T19:12:42.580Z,281.17
2022-09-07T19:15:11.644Z,212.90
2022-09-07T19:17:38.624Z,250.95
2022-09-07T19:20:05.280Z,184.88
2022-09-07T19:22:32.398Z,100.90
2022-09-07T19:24:58.868Z,64.30
2022-09-07T19:27:27.107Z,52.88
2022-09-07T19:29:58.465Z,50.85
2022-09-07T19:32:25.759Z,33.40
2022-09-07T19:34:55.533Z,25.55
2022-09-07T19:37:25.974Z,22.88
2022-09-07T19:39:55.303Z,19.45
2022-09-07T19:42:23.677Z,15.43
2022-09-07T19:44:50.468Z,18.13
2022-09-07T19:47:16.975Z,17.92
2022-09-07T19:49:43.627Z,15.90
2022-09-07T19:52:10.209Z,18.35
2022-09-07T19:54:37.225Z,16.35
2022-09-07T19:57:05.214Z,11.18
2022-09-07T19:59:31.675Z,16.45
2022-09-07T20:01:58.153Z,11.07
2022-09-07T20:04:25.087Z,11.45
2022-09-07T20:06:51.671Z,15.05
2022-09-07T20:09:18.844Z,12.73
2022-09-07T20:11:47.582Z,20.70
2022-09-07T20:14:14.697Z,21.90
2022-09-07T20:16:41.794Z,16.08
2022-09-07T20:19:08.523Z,13.60
2022-09-07T20:21:36.962Z,12.52
2022-09-07T20:24:04.186Z,10.68
2022-09-07T20:26:32.386Z,12.63
2022-09-07T20:29:16.833Z,15.68
2022-09-07T20:31:46.921Z,15.35
2022-09-07T20:34:13.652Z,16.38
2022-09-07T20:36:40.169Z,14.75
2022-09-07T20:39:06.665Z,10.88
2022-09-07T20:41:34.148Z,15.13
2022-09-07T20:44:01.644Z,14.40
2022-09-07T20:46:29.012Z,15.35
2022-09-07T20:48:55.534Z,16.80
2022-09-07T20:51:22.318Z,57.25
2022-09-07T20:53:49.304Z,242.73
2022-09-07T20:56:17.278Z,80.43
2022-09-07T20:58:44.520Z,39.05
2022-09-07T21:01:12.116Z,28.75
2022-09-07T21:03:38.987Z,17.77
2022-09-07T21:06:07.124Z,14.98
2022-09-07T21:08:37.287Z,13.32
2022-09-07T21:11:30.197Z,22.52
2022-09-07T21:13:57.496Z,14.52
2022-09-07T21:16:24.450Z,20.60
2022-09-07T21:18:55.474Z,12.35
2022-09-07T21:21:23.197Z,18.38
2022-09-07T21:23:53.966Z,14.32
2022-09-07T21:26:20.846Z,15.40
2022-09-07T21:28:47.383Z,17.13
2022-09-07T21:31:13.914Z,11.82
2022-09-07T21:33:40.484Z,17.63
2022-09-07T21:36:10.742Z,16.08
2022-09-07T21:38:38.220Z,11.50
2022-09-07T21:41:08.707Z,13.35
2022-09-07T21:43:35.202Z,11.73
2022-09-07T21:46:08.008Z,12.00
2022-09-07T21:48:34.935Z,21.17
2022-09-07T21:51:01.426Z,16.60
2022-09-07T21:53:27.922Z,20.63
2022-09-07T21:55:58.134Z,13.02
2022-09-07T21:58:25.499Z,17.88
2022-09-07T22:00:52.373Z,19.92
2022-09-07T22:03:19.148Z,14.32
2022-09-07T22:05:45.636Z,16.83
2022-09-07T22:08:14.393Z,15.77
2022-09-07T22:10:41.511Z,16.48
2022-09-07T22:13:08.070Z,11.55
2022-09-07T22:15:37.692Z,14.00
2022-09-07T22:18:04.960Z,17.40
2022-09-07T22:20:32.267Z,19.10
2022-09-07T22:22:59.204Z,10.38
2022-09-07T22:25:26.577Z,14.18
2022-09-07T22:27:53.738Z,14.48
2022-09-07T22:30:20.411Z,13.57
2022-09-07T22:32:47.867Z,14.38
2022-09-07T22:35:14.879Z,17.92
2022-09-07T22:37:41.432Z,13.85
2022-09-07T22:40:08.225Z,16.88
2022-09-07T22:42:34.722Z,14.15
2022-09-07T22:45:01.209Z,17.42
2022-09-07T22:47:27.689Z,10.25
2022-09-07T22:49:54.408Z,15.45
2022-09-07T22:52:20.900Z,18.92
2022-09-07T22:54:47.371Z,15.85
2022-09-07T22:57:13.931Z,12.65
2022-09-07T22:59:40.500Z,11.73
2022-09-07T23:02:07.127Z,18.45
2022-09-07T23:04:33.785Z,14.55
2022-09-07T23:07:00.375Z,14.50
2022-09-07T23:09:26.993Z,14.45
2022-09-07T23:11:53.691Z,14.40
2022-09-07T23:14:22.207Z,11.57
2022-09-07T23:16:49.391Z,20.77
2022-09-07T23:19:16.885Z,15.43
2022-09-07T23:21:43.506Z,7.45
2022-09-07T23:24:12.052Z,7.20
2022-09-07T23:26:38.593Z,5.75
2022-09-07T23:29:05.559Z,9.93
2022-09-07T23:31:33.889Z,7.10
2022-09-07T23:34:01.722Z,11.95
2022-09-07T23:36:29.291Z,13.80
2022-09-07T23:38:56.673Z,23.95
2022-09-07T23:41:24.828Z,17.23
2022-09-07T23:43:53.283Z,9.13
2022-09-07T23:46:20.871Z,21.30
2022-09-07T23:48:48.143Z,13.35
2022-09-07T23:51:16.950Z,9.85
2022-09-07T23:53:46.703Z,13.60
2022-09-07T23:56:13.193Z,10.85
2022-09-07T23:58:39.675Z,11.25
